Time;durP1;ratioP1;P1;durP2;ratioP2;P2;SDS_P1;SDS_P2;PMS_P1;PMS_P2;Temp;Humidity;BMP_temperature;BMP_pressure;BME280_temperature;BME280_humidity;BME280_pressure;Samples;Min_cycle;Max_cycle;Signal;HPM_P1;HPM_P2
2022/06/25 00:01:11;;;;;;;1.48;0.90;;;14.60;99.90;;;;;;5092227;28;20485;-53
2022/06/25 00:03:38;;;;;;;0.90;0.90;;;14.60;99.90;;;;;;5091838;28;20359;-52
2022/06/25 00:06:04;;;;;;;1.10;1.00;;;14.60;99.90;;;;;;5093470;28;20020;-52
2022/06/25 00:08:31;;;;;;;1.23;1.08;;;14.60;99.90;;;;;;5093200;28;20035;-52
2022/06/25 00:10:56;;;;;;;5.43;1.00;;;14.50;99.90;;;;;;5089608;28;20031;-53
2022/06/25 00:13:22;;;;;;;1.75;0.90;;;14.50;99.90;;;;;;5090640;28;20103;-49
2022/06/25 00:15:48;;;;;;;4.82;0.82;;;14.50;99.90;;;;;;5091459;28;20375;-51
2022/06/25 00:18:16;;;;;;;4.68;1.05;;;14.50;99.90;;;;;;5091422;28;20040;-53
2022/06/25 00:20:44;;;;;;;3.70;1.02;;;14.60;99.90;;;;;;5091216;28;20411;-54
2022/06/25 00:23:10;;;;;;;2.05;0.88;;;14.50;99.90;;;;;;5090405;28;20048;-52
2022/06/25 00:25:36;;;;;;;0.82;0.73;;;14.50;99.90;;;;;;5090056;28;20406;-51
2022/06/25 00:28:02;;;;;;;1.02;0.93;;;14.50;99.90;;;;;;5089126;28;20099;-52
2022/06/25 00:30:28;;;;;;;0.70;0.70;;;14.50;99.90;;;;;;5092432;28;20043;-51
2022/06/25 00:32:54;;;;;;;2.17;1.20;;;14.50;99.90;;;;;;5091350;28;20443;-52
2022/06/25 00:35:27;;;;;;;1.35;0.90;;;14.50;99.90;;;;;;5089707;28;20036;-53
2022/06/25 00:37:52;;;;;;;1.42;1.00;;;14.50;99.90;;;;;;5089862;28;20049;-52
2022/06/25 00:40:18;;;;;;;4.20;1.10;;;14.50;99.90;;;;;;5089871;28;20036;-52
2022/06/25 00:42:45;;;;;;;1.95;0.98;;;14.50;99.90;;;;;;5089900;28;20364;-53
2022/06/25 00:45:11;;;;;;;0.82;0.82;;;14.40;99.90;;;;;;5091975;28;20028;-53
2022/06/25 00:47:37;;;;;;;1.02;0.93;;;14.40;99.90;;;;;;5089925;28;20055;-49
2022/06/25 00:50:04;;;;;;;2.50;1.15;;;14.40;99.90;;;;;;5092547;28;20413;-52
2022/06/25 00:52:33;;;;;;;2.47;1.00;;;14.40;99.90;;;;;;5089802;28;20495;-52
2022/06/25 00:55:06;;;;;;;3.17;1.27;;;14.40;99.90;;;;;;5091368;28;20479;-52
2022/06/25 00:57:34;;;;;;;1.15;0.90;;;14.40;99.90;;;;;;5091017;28;20024;-52
2022/06/25 01:00:09;;;;;;;1.45;1.27;;;14.40;99.90;;;;;;5091412;28;20020;-52
2022/06/25 01:02:36;;;;;;;0.90;0.88;;;14.50;99.90;;;;;;5091181;28;20114;-51
2022/06/25 01:05:07;;;;;;;1.60;0.80;;;14.50;99.90;;;;;;5091786;28;20024;-51
2022/06/25 01:07:34;;;;;;;2.90;1.08;;;14.40;99.90;;;;;;5090716;28;20024;-53
2022/06/25 01:10:01;;;;;;;0.80;0.80;;;14.40;99.90;;;;;;5091561;28;20028;-52
2022/06/25 01:12:26;;;;;;;2.30;0.85;;;14.40;99.90;;;;;;5089239;28;20099;-53
2022/06/25 01:15:07;;;;;;;1.10;1.05;;;14.40;99.90;;;;;;5089235;28;20169;-53
2022/06/25 01:17:36;;;;;;;1.48;0.90;;;14.40;99.90;;;;;;5089371;28;20020;-53
2022/06/25 01:20:04;;;;;;;2.15;1.20;;;14.40;99.90;;;;;;5089569;28;20379;-54
2022/06/25 01:22:30;;;;;;;2.90;1.10;;;14.50;99.90;;;;;;5087718;28;20036;-52
2022/06/25 01:24:56;;;;;;;2.33;1.05;;;14.50;99.90;;;;;;5090637;28;20174;-52
2022/06/25 01:27:22;;;;;;;2.35;1.10;;;14.50;99.90;;;;;;5089206;28;20110;-51
2022/06/25 01:29:47;;;;;;;0.95;0.93;;;14.50;99.90;;;;;;5089059;28;20067;-51
2022/06/25 01:32:13;;;;;;;1.38;1.23;;;14.50;99.90;;;;;;5088807;28;20438;-53
2022/06/25 01:34:39;;;;;;;2.50;1.17;;;14.50;99.90;;;;;;5089056;28;20080;-52
2022/06/25 01:37:05;;;;;;;4.63;1.30;;;14.50;99.90;;;;;;5088685;28;20522;-51
2022/06/25 01:39:31;;;;;;;4.28;2.92;;;14.50;99.90;;;;;;5088807;28;20032;-52
2022/06/25 01:41:56;;;;;;;2.65;1.10;;;14.50;99.90;;;;;;5089553;28;20024;-51
2022/06/25 01:44:23;;;;;;;2.17;1.20;;;14.50;99.90;;;;;;5090731;28;20492;-51
2022/06/25 01:46:49;;;;;;;1.27;1.23;;;14.50;99.90;;;;;;5090771;28;20050;-51
2022/06/25 01:49:15;;;;;;;1.30;1.20;;;14.50;99.90;;;;;;5090499;28;20153;-53
2022/06/25 01:51:41;;;;;;;1.73;1.20;;;14.50;99.90;;;;;;5091645;28;20114;-52
2022/06/25 01:54:07;;;;;;;2.95;1.48;;;14.50;99.90;;;;;;5091625;28;20056;-53
2022/06/25 01:56:33;;;;;;;1.25;0.90;;;14.50;99.90;;;;;;5091148;28;20459;-50
2022/06/25 01:58:58;;;;;;;1.85;1.10;;;14.50;99.90;;;;;;5089878;28;20031;-55
2022/06/25 02:01:24;;;;;;;5.32;1.30;;;14.50;99.90;;;;;;5089697;28;20020;-52
2022/06/25 02:03:50;;;;;;;1.10;1.10;;;14.50;99.90;;;;;;5090119;28;20103;-51
2022/06/25 02:06:16;;;;;;;1.27;1.17;;;14.50;99.90;;;;;;5089623;28;20020;-51
2022/06/25 02:08:42;;;;;;;2.85;1.42;;;14.50;99.90;;;;;;5090115;28;20028;-52
2022/06/25 02:11:09;;;;;;;1.35;1.13;;;14.60;99.90;;;;;;5091484;28;20371;-53
2022/06/25 02:13:36;;;;;;;3.03;1.10;;;14.60;99.90;;;;;;5091332;28;20012;-52
2022/06/25 02:16:03;;;;;;;2.33;1.20;;;14.60;99.90;;;;;;5090830;28;20032;-52
2022/06/25 02:18:29;;;;;;;1.20;1.10;;;14.60;99.90;;;;;;5091069;28;20028;-53
2022/06/25 02:20:55;;;;;;;1.15;1.15;;;14.60;99.90;;;;;;5091097;28;20020;-52
2022/06/25 02:23:21;;;;;;;2.10;1.17;;;14.50;99.90;;;;;;5089388;28;20436;-51
2022/06/25 02:25:47;;;;;;;3.80;1.60;;;14.60;99.90;;;;;;5091047;28;20024;-52
2022/06/25 02:28:17;;;;;;;1.70;1.13;;;14.60;99.90;;;;;;5089370;28;20028;-51
2022/06/25 02:30:44;;;;;;;1.40;1.02;;;14.60;99.90;;;;;;5088322;28;20028;-52
2022/06/25 02:33:12;;;;;;;1.40;1.30;;;14.60;99.90;;;;;;5088294;28;20461;-50
2022/06/25 02:35:41;;;;;;;2.03;1.45;;;14.60;99.90;;;;;;5092408;28;20614;-51
2022/06/25 02:38:08;;;;;;;5.35;1.40;;;14.60;99.90;;;;;;5092231;28;20020;-50
2022/06/25 02:40:34;;;;;;;1.30;1.20;;;14.60;99.90;;;;;;5094566;28;20052;-53
2022/06/25 02:43:01;;;;;;;2.97;1.40;;;14.60;99.90;;;;;;5095288;28;20020;-52
2022/06/25 02:45:27;;;;;;;3.90;1.30;;;14.60;99.90;;;;;;5094583;28;20028;-52
2022/06/25 02:47:52;;;;;;;1.38;1.25;;;14.60;99.90;;;;;;5093519;28;20027;-52
2022/06/25 02:50:18;;;;;;;1.30;1.20;;;14.60;99.90;;;;;;5090782;28;20024;-52
2022/06/25 02:52:44;;;;;;;1.90;1.30;;;14.60;99.90;;;;;;5092448;28;20425;-55
2022/06/25 02:55:09;;;;;;;1.63;1.20;;;14.70;99.90;;;;;;5092389;28;20379;-53
2022/06/25 03:00:19;;;;;;;0.90;0.90;;;14.70;99.90;;;;;;5093364;28;20043;-51
2022/06/25 03:02:45;;;;;;;1.05;0.95;;;14.70;99.90;;;;;;5094872;28;20020;-52
2022/06/25 03:05:11;;;;;;;1.33;0.85;;;14.80;99.90;;;;;;5094981;28;20617;-51
2022/06/25 03:07:36;;;;;;;2.28;1.00;;;14.70;99.90;;;;;;5093382;28;20020;-53
2022/06/25 03:10:02;;;;;;;8.30;1.25;;;14.80;99.90;;;;;;5092274;28;20099;-52
2022/06/25 03:12:28;;;;;;;2.80;1.20;;;14.80;99.90;;;;;;5092166;28;20058;-54
2022/06/25 03:14:54;;;;;;;1.10;1.10;;;14.70;99.90;;;;;;5092281;28;20445;-53
2022/06/25 03:17:20;;;;;;;5.25;1.27;;;14.80;99.90;;;;;;5091986;28;20020;-55
2022/06/25 03:19:45;;;;;;;3.78;1.20;;;14.80;99.90;;;;;;5092740;28;20349;-52
2022/06/25 03:22:11;;;;;;;1.33;0.95;;;14.80;99.90;;;;;;5094137;28;20107;-52
2022/06/25 03:24:37;;;;;;;4.05;1.10;;;14.70;99.90;;;;;;5094403;28;20112;-53
2022/06/25 03:27:03;;;;;;;3.22;1.20;;;14.80;99.90;;;;;;5094134;28;20036;-51
2022/06/25 03:29:28;;;;;;;1.52;1.42;;;14.80;99.90;;;;;;5093246;28;20538;-51
2022/06/25 03:31:54;;;;;;;3.28;1.23;;;14.80;99.90;;;;;;5091055;28;20024;-53
2022/06/25 03:34:20;;;;;;;1.80;1.20;;;14.80;99.90;;;;;;5093689;28;20039;-51
2022/06/25 03:36:45;;;;;;;1.00;1.00;;;14.80;99.90;;;;;;5092663;28;20467;-53
2022/06/25 03:39:11;;;;;;;1.20;1.20;;;14.80;99.90;;;;;;5091418;28;20025;-51
2022/06/25 03:41:37;;;;;;;3.38;1.45;;;14.80;99.90;;;;;;5091822;28;20032;-52
2022/06/25 03:44:04;;;;;;;1.10;1.10;;;14.80;99.90;;;;;;5091726;28;20032;-53
2022/06/25 03:46:31;;;;;;;1.45;1.35;;;14.80;99.90;;;;;;5090560;28;20024;-52
2022/06/25 03:48:56;;;;;;;1.48;1.20;;;14.70;99.90;;;;;;5091660;28;20024;-51
2022/06/25 03:51:22;;;;;;;2.63;1.20;;;14.80;99.90;;;;;;5090345;28;20020;-54
2022/06/25 03:53:48;;;;;;;2.60;1.30;;;14.80;99.90;;;;;;5093855;28;20020;-52
2022/06/25 03:56:14;;;;;;;3.60;1.30;;;14.80;99.90;;;;;;5093549;28;20024;-53
2022/06/25 03:58:39;;;;;;;4.45;1.73;;;14.90;99.90;;;;;;5091747;28;20047;-52
2022/06/25 04:01:05;;;;;;;3.75;1.15;;;14.90;99.90;;;;;;5090611;28;20051;-51
2022/06/25 04:03:31;;;;;;;1.30;1.10;;;14.90;99.90;;;;;;5090547;28;20027;-51
2022/06/25 04:05:57;;;;;;;1.27;1.13;;;14.90;99.90;;;;;;5090611;28;20386;-52
2022/06/25 04:08:23;;;;;;;2.67;1.20;;;14.90;99.90;;;;;;5090732;28;20035;-51
2022/06/25 04:10:49;;;;;;;1.55;1.45;;;14.90;99.90;;;;;;5090503;28;20387;-51
2022/06/25 04:13:15;;;;;;;1.73;1.63;;;15.00;99.90;;;;;;5090420;28;20032;-51
2022/06/25 04:15:41;;;;;;;1.27;1.23;;;15.00;99.90;;;;;;5091995;28;20028;-53
2022/06/25 04:18:07;;;;;;;2.35;1.45;;;15.00;99.90;;;;;;5093127;28;20020;-52
2022/06/25 04:20:34;;;;;;;1.73;1.30;;;15.00;99.90;;;;;;5092653;28;20020;-52
2022/06/25 04:22:59;;;;;;;1.38;1.27;;;15.10;99.90;;;;;;5091132;28;20547;-53
2022/06/25 04:25:25;;;;;;;1.75;1.30;;;15.10;99.90;;;;;;5092083;28;20111;-53
2022/06/25 04:30:35;;;;;;;4.65;1.52;;;15.30;99.90;;;;;;5090212;28;20042;-50
2022/06/25 04:33:01;;;;;;;1.98;1.10;;;15.40;99.90;;;;;;5091624;28;20028;-51
2022/06/25 04:35:27;;;;;;;1.10;1.10;;;15.30;99.90;;;;;;5091234;28;20020;-50
2022/06/25 04:37:52;;;;;;;2.45;1.30;;;15.40;99.90;;;;;;5092681;28;20398;-55
2022/06/25 04:40:18;;;;;;;1.20;1.10;;;15.50;99.90;;;;;;5092630;28;20040;-51
2022/06/25 04:42:45;;;;;;;1.35;1.27;;;15.60;99.90;;;;;;5091283;28;20348;-54
2022/06/25 04:45:11;;;;;;;2.30;1.02;;;15.60;99.90;;;;;;5092138;28;20095;-51
2022/06/25 04:47:38;;;;;;;9.57;2.00;;;15.70;99.90;;;;;;5092673;28;20107;-51
2022/06/25 04:50:04;;;;;;;2.25;1.00;;;15.70;99.90;;;;;;5091101;28;20483;-50
2022/06/25 04:52:30;;;;;;;3.83;1.10;;;15.70;99.90;;;;;;5088335;28;20074;-51
2022/06/25 04:54:55;;;;;;;3.42;1.50;;;15.70;99.90;;;;;;5090884;28;20035;-51
2022/06/25 04:57:21;;;;;;;2.13;1.27;;;15.80;99.90;;;;;;5090457;28;20051;-52
2022/06/25 04:59:47;;;;;;;2.15;1.10;;;15.80;99.90;;;;;;5090802;28;20032;-54
2022/06/25 05:02:12;;;;;;;1.10;1.00;;;15.80;99.90;;;;;;5090465;28;20024;-52
2022/06/25 05:04:38;;;;;;;1.20;1.02;;;15.90;99.90;;;;;;5089446;28;20030;-51
2022/06/25 05:07:04;;;;;;;2.95;1.02;;;15.90;99.90;;;;;;5089545;28;20055;-51
2022/06/25 05:09:29;;;;;;;2.58;1.23;;;16.00;99.90;;;;;;5089107;28;20039;-53
2022/06/25 05:11:55;;;;;;;4.57;1.08;;;16.10;99.90;;;;;;5087902;28;20036;-52
2022/06/25 05:14:21;;;;;;;3.70;1.23;;;16.20;99.90;;;;;;5089679;28;20027;-52
2022/06/25 05:16:46;;;;;;;1.30;1.20;;;16.20;99.90;;;;;;5091105;28;20064;-56
2022/06/25 05:19:12;;;;;;;1.98;1.30;;;16.20;99.90;;;;;;5090496;28;20070;-54
2022/06/25 05:21:38;;;;;;;0.93;0.93;;;16.20;99.90;;;;;;5090722;28;20023;-52
2022/06/25 05:24:05;;;;;;;2.85;1.20;;;16.20;99.90;;;;;;5090197;28;20024;-52
2022/06/25 05:26:31;;;;;;;1.20;1.10;;;16.30;99.90;;;;;;5089458;28;20391;-53
2022/06/25 05:28:56;;;;;;;2.00;1.58;;;16.20;99.90;;;;;;5091241;28;20024;-54
2022/06/25 05:31:22;;;;;;;1.73;1.17;;;16.10;99.90;;;;;;5090301;28;20024;-53
2022/06/25 05:33:49;;;;;;;1.60;1.05;;;16.20;99.90;;;;;;5089139;28;20017;-53
2022/06/25 05:36:15;;;;;;;1.27;1.10;;;16.20;99.90;;;;;;5088708;28;20074;-52
2022/06/25 05:38:41;;;;;;;0.95;0.90;;;16.20;99.90;;;;;;5090999;28;20028;-53
2022/06/25 05:41:09;;;;;;;2.20;0.88;;;16.20;99.90;;;;;;5090968;28;20048;-52
2022/06/25 05:43:36;;;;;;;1.13;1.00;;;16.30;99.90;;;;;;5089280;28;20365;-53
2022/06/25 05:46:02;;;;;;;3.55;1.00;;;16.30;99.90;;;;;;5089867;28;20016;-51
2022/06/25 05:48:28;;;;;;;1.30;1.20;;;16.30;99.90;;;;;;5089696;28;20089;-54
2022/06/25 05:50:54;;;;;;;2.33;1.35;;;16.40;99.90;;;;;;5089867;28;20016;-53
2022/06/25 05:53:19;;;;;;;2.33;1.27;;;16.50;99.90;;;;;;5089778;28;20113;-53
2022/06/25 05:55:45;;;;;;;1.52;0.90;;;16.70;99.90;;;;;;5089721;28;20475;-54
2022/06/25 05:58:12;;;;;;;2.25;1.00;;;16.60;99.90;;;;;;5089716;28;20024;-52
2022/06/25 06:00:38;;;;;;;3.90;1.15;;;16.70;99.90;;;;;;5090756;28;20106;-53
2022/06/25 06:03:04;;;;;;;0.98;0.90;;;16.60;99.90;;;;;;5090624;28;20472;-52
2022/06/25 06:05:30;;;;;;;1.10;1.00;;;16.70;99.90;;;;;;5089956;28;20111;-54
2022/06/25 06:07:56;;;;;;;5.40;1.42;;;16.70;99.90;;;;;;5090209;28;20028;-51
2022/06/25 06:10:21;;;;;;;2.25;1.00;;;16.80;99.90;;;;;;5091998;28;20035;-52
2022/06/25 06:12:47;;;;;;;1.30;1.20;;;16.90;99.90;;;;;;5093925;28;20228;-51
2022/06/25 06:15:13;;;;;;;17.23;1.85;;;17.10;99.90;;;;;;5095220;28;20047;-52
2022/06/25 06:17:38;;;;;;;3.67;1.00;;;17.20;99.90;;;;;;5095313;28;20093;-51
2022/06/25 06:20:05;;;;;;;4.03;0.95;;;17.20;99.90;;;;;;5095761;28;20023;-54
2022/06/25 06:22:31;;;;;;;6.55;1.50;;;17.20;99.90;;;;;;5095283;28;20407;-56
2022/06/25 06:24:57;;;;;;;1.33;1.23;;;17.20;99.90;;;;;;5095423;28;20024;-56
2022/06/25 06:27:23;;;;;;;2.42;1.08;;;17.30;99.90;;;;;;5093491;28;20028;-53
2022/06/25 06:29:48;;;;;;;1.25;0.80;;;17.40;99.90;;;;;;5093911;28;20475;-53
2022/06/25 06:32:14;;;;;;;1.25;1.10;;;17.40;99.90;;;;;;5094707;28;20107;-54
2022/06/25 06:34:40;;;;;;;3.83;0.90;;;17.50;99.90;;;;;;5093309;28;20028;-55
2022/06/25 06:37:06;;;;;;;0.90;0.85;;;17.60;99.90;;;;;;5091672;28;20381;-52
2022/06/25 06:39:31;;;;;;;1.95;1.00;;;17.50;99.90;;;;;;5092881;28;20040;-54
2022/06/25 06:41:57;;;;;;;3.05;0.98;;;17.50;99.90;;;;;;5093886;28;20051;-54
2022/06/25 06:44:23;;;;;;;3.22;0.90;;;17.90;99.90;;;;;;5093527;28;20028;-55
2022/06/25 06:46:48;;;;;;;1.10;0.95;;;18.00;99.90;;;;;;5093733;28;20024;-54
2022/06/25 06:49:14;;;;;;;4.00;1.00;;;18.00;99.90;;;;;;5093721;28;20555;-52
2022/06/25 06:51:40;;;;;;;3.50;1.00;;;18.00;99.90;;;;;;5091907;28;20020;-53
2022/06/25 06:54:05;;;;;;;1.50;0.90;;;18.20;99.90;;;;;;5091568;28;20081;-55
2022/06/25 06:56:31;;;;;;;2.85;1.10;;;18.30;99.90;;;;;;5091992;28;20058;-53
2022/06/25 06:58:57;;;;;;;2.15;0.98;;;18.50;99.90;;;;;;5092360;28;20079;-51
2022/06/25 07:01:23;;;;;;;4.25;1.10;;;18.50;99.90;;;;;;5091816;28;20016;-52
2022/06/25 07:03:48;;;;;;;2.08;0.95;;;18.50;99.90;;;;;;5092023;28;20034;-51
2022/06/25 07:06:14;;;;;;;3.72;1.00;;;18.40;99.90;;;;;;5092673;28;20107;-54
2022/06/25 07:08:40;;;;;;;1.23;1.00;;;18.40;99.90;;;;;;5093526;28;20032;-52
2022/06/25 07:11:28;;;;;;;5.45;2.22;;;18.40;99.90;;;;;;5093382;28;20391;-51
2022/06/25 07:13:53;;;;;;;1.10;1.00;;;18.40;99.90;;;;;;5093383;28;20491;-53
2022/06/25 07:16:19;;;;;;;3.45;1.23;;;18.40;99.90;;;;;;5093152;28;20028;-55
2022/06/25 07:18:44;;;;;;;3.45;1.00;;;18.60;99.90;;;;;;5093220;28;20031;-55
2022/06/25 07:21:10;;;;;;;0.93;0.90;;;18.50;99.90;;;;;;5092250;28;20089;-54
2022/06/25 07:23:36;;;;;;;7.40;0.95;;;18.40;99.90;;;;;;5094416;28;20448;-53
2022/06/25 07:26:01;;;;;;;2.08;0.93;;;18.50;99.90;;;;;;5094486;28;20056;-54
2022/06/25 07:28:27;;;;;;;1.20;1.00;;;18.80;99.90;;;;;;5094186;28;20032;-55
2022/06/25 07:30:54;;;;;;;1.77;0.82;;;18.90;99.90;;;;;;5095410;28;20051;-54
2022/06/25 07:33:19;;;;;;;1.10;1.00;;;19.10;99.90;;;;;;5092990;28;20039;-51
2022/06/25 07:35:45;;;;;;;2.70;1.10;;;19.10;99.90;;;;;;5082660;28;20032;-51
2022/06/25 07:38:11;;;;;;;3.90;0.85;;;19.10;99.90;;;;;;5073836;28;20024;-52
2022/06/25 07:40:37;;;;;;;2.80;0.93;;;19.10;99.90;;;;;;5073720;28;20040;-52
2022/06/25 07:43:03;;;;;;;3.10;1.10;;;19.20;99.90;;;;;;5073677;28;20016;-53
2022/06/25 07:45:29;;;;;;;2.33;1.38;;;19.40;99.90;;;;;;5074145;28;20020;-53
2022/06/25 07:54:00;;;;;;;0.93;0.85;;;19.70;99.90;;;;;;5082968;28;20038;-55
2022/06/25 07:56:26;;;;;;;1.42;0.82;;;19.80;99.90;;;;;;5082314;28;20371;-53
2022/06/25 07:58:51;;;;;;;4.10;0.80;;;20.10;99.90;;;;;;5082149;28;20040;-54
2022/06/25 08:01:17;;;;;;;1.35;1.00;;;19.90;99.90;;;;;;5082969;28;20024;-52
2022/06/25 08:03:43;;;;;;;2.92;1.00;;;20.20;99.90;;;;;;5081580;28;20451;-53
2022/06/25 08:06:10;;;;;;;2.38;0.95;;;20.50;99.90;;;;;;5083030;28;20396;-52
2022/06/25 08:08:36;;;;;;;0.95;0.90;;;20.70;99.90;;;;;;5082241;28;20020;-54
2022/06/25 08:11:01;;;;;;;1.10;0.70;;;20.20;99.90;;;;;;5081858;28;20039;-55
2022/06/25 08:13:27;;;;;;;1.15;0.98;;;20.30;99.90;;;;;;5082573;28;20123;-53
2022/06/25 08:15:54;;;;;;;1.05;1.02;;;20.40;99.90;;;;;;5082662;28;20051;-55
2022/06/25 08:18:20;;;;;;;3.92;1.00;;;20.30;99.90;;;;;;5081018;28;20111;-52
2022/06/25 08:20:46;;;;;;;3.38;0.85;;;20.40;99.90;;;;;;5082299;28;20063;-51
2022/06/25 08:23:12;;;;;;;0.77;0.73;;;20.60;99.90;;;;;;5082445;28;20083;-54
2022/06/25 08:25:38;;;;;;;0.98;0.70;;;20.60;99.90;;;;;;5081649;28;20499;-53
2022/06/25 08:28:04;;;;;;;2.03;1.17;;;20.90;99.90;;;;;;5082457;28;20032;-54
2022/06/25 08:30:29;;;;;;;1.52;0.80;;;20.80;99.90;;;;;;5082379;28;20089;-55
2022/06/25 08:32:55;;;;;;;3.63;0.80;;;20.60;99.90;;;;;;5081780;28;20059;-52
2022/06/25 08:35:22;;;;;;;3.15;1.15;;;20.80;99.90;;;;;;5081899;28;20036;-54
2022/06/25 08:37:49;;;;;;;2.65;1.25;;;21.10;99.90;;;;;;5082223;28;20024;-56
2022/06/25 08:40:17;;;;;;;5.47;0.95;;;21.30;99.90;;;;;;5081563;28;20103;-55
2022/06/25 08:42:43;;;;;;;0.70;0.70;;;21.70;99.90;;;;;;5080587;28;20052;-56
2022/06/25 08:45:09;;;;;;;12.13;0.82;;;21.40;99.90;;;;;;5081722;28;20115;-54
2022/06/25 08:47:46;;;;;;;0.75;0.75;;;20.80;99.90;;;;;;5081475;28;20024;-53
2022/06/25 08:50:16;;;;;;;1.42;0.93;;;21.30;99.90;;;;;;5081208;28;20032;-54
2022/06/25 08:52:52;;;;;;;2.50;0.90;;;21.30;99.90;;;;;;5081559;28;20024;-55
2022/06/25 08:55:36;;;;;;;1.55;0.77;;;21.10;99.90;;;;;;5081228;28;20072;-53
2022/06/25 08:58:03;;;;;;;4.55;1.20;;;21.30;99.90;;;;;;5081346;28;20546;-56
2022/06/25 09:00:31;;;;;;;5.95;0.85;;;21.40;99.90;;;;;;5081332;28;20075;-54
2022/06/25 09:02:57;;;;;;;1.25;0.70;;;21.30;99.90;;;;;;5081524;28;20020;-55
2022/06/25 09:05:34;;;;;;;0.50;0.50;;;21.40;99.90;;;;;;5081453;28;20024;-54
2022/06/25 09:08:06;;;;;;;0.60;0.60;;;21.50;99.90;;;;;;5081491;28;20101;-51
2022/06/25 09:10:34;;;;;;;2.55;0.68;;;21.50;99.90;;;;;;5080899;28;20024;-56
2022/06/25 09:13:11;;;;;;;1.38;0.77;;;21.60;99.90;;;;;;5081654;28;20028;-56
2022/06/25 09:15:42;;;;;;;3.28;0.98;;;21.30;99.90;;;;;;5080774;28;20052;-54
2022/06/25 09:18:12;;;;;;;1.45;0.75;;;21.60;99.90;;;;;;5080019;28;20056;-53
2022/06/25 09:21:05;;;;;;;0.60;0.60;;;21.60;99.90;;;;;;5080487;28;20032;-53
2022/06/25 09:23:37;;;;;;;0.90;0.80;;;21.70;99.90;;;;;;5081428;28;20024;-52
2022/06/25 09:26:10;;;;;;;2.97;0.95;;;21.20;99.90;;;;;;5068007;28;20036;-53
2022/06/25 09:28:38;;;;;;;0.70;0.70;;;21.30;99.90;;;;;;5080358;28;20032;-55
2022/06/25 09:31:04;;;;;;;0.70;0.70;;;21.50;99.90;;;;;;5080995;28;20279;-55
2022/06/25 09:33:31;;;;;;;1.10;0.70;;;21.70;99.90;;;;;;5081031;28;20043;-55
2022/06/25 09:35:57;;;;;;;1.00;0.90;;;21.80;99.90;;;;;;5089360;28;20077;-51
2022/06/25 09:38:24;;;;;;;1.50;0.85;;;21.90;99.90;;;;;;5091374;28;20024;-49
2022/06/25 09:40:51;;;;;;;3.80;0.80;;;22.00;99.90;;;;;;5091686;28;20058;-54
2022/06/25 09:43:19;;;;;;;0.88;0.88;;;22.40;99.90;;;;;;5090052;28;20455;-54
2022/06/25 09:45:49;;;;;;;2.20;1.25;;;22.10;99.90;;;;;;5091888;28;20024;-53
2022/06/25 09:48:26;;;;;;;0.95;0.75;;;22.40;99.90;;;;;;5091217;28;20039;-68
2022/06/25 09:51:12;;;;;;;0.82;0.70;;;22.00;99.80;;;;;;5091821;28;20066;-51
2022/06/25 09:53:57;;;;;;;1.15;0.90;;;22.30;99.90;;;;;;5091430;28;20027;-49
2022/06/25 09:56:31;;;;;;;2.42;1.10;;;22.10;99.90;;;;;;5091502;28;20360;-54
2022/06/25 09:58:58;;;;;;;1.90;0.60;;;22.10;99.90;;;;;;5091469;28;20073;-57
2022/06/25 10:01:26;;;;;;;0.63;0.63;;;22.70;99.90;;;;;;5091186;28;20048;-55
2022/06/25 10:03:52;;;;;;;0.70;0.60;;;23.20;99.90;;;;;;5091157;28;20024;-56
2022/06/25 10:06:19;;;;;;;1.23;1.13;;;23.10;98.90;;;;;;5091467;28;20389;-53
2022/06/25 10:08:55;;;;;;;1.27;0.55;;;23.10;99.80;;;;;;5091543;28;20680;-54
2022/06/25 10:11:24;;;;;;;6.22;0.88;;;23.40;98.90;;;;;;5094060;28;20032;-54
2022/06/25 10:13:51;;;;;;;5.35;1.02;;;23.60;99.20;;;;;;5093316;28;20051;-55
2022/06/25 10:16:18;;;;;;;3.85;0.75;;;23.10;98.00;;;;;;5093205;28;20020;-51
2022/06/25 10:18:44;;;;;;;4.80;0.95;;;23.50;97.20;;;;;;5092809;28;20023;-54
2022/06/25 10:21:12;;;;;;;1.75;0.60;;;23.70;97.20;;;;;;5092594;28;20111;-55
2022/06/25 10:23:39;;;;;;;1.00;0.38;;;24.00;97.10;;;;;;5092184;28;20027;-52
2022/06/25 10:26:07;;;;;;;1.85;0.50;;;24.10;96.90;;;;;;5093593;28;20036;-53
2022/06/25 10:28:36;;;;;;;1.10;0.50;;;23.90;95.10;;;;;;5091473;28;20020;-51
2022/06/25 10:31:07;;;;;;;0.35;0.35;;;24.10;96.20;;;;;;5091706;28;20511;-51
2022/06/25 10:33:58;;;;;;;0.65;0.50;;;24.30;95.70;;;;;;5093188;28;20036;-53
2022/06/25 10:36:47;;;;;;;1.27;0.65;;;24.30;96.30;;;;;;5091828;28;20024;-53
2022/06/25 10:39:28;;;;;;;0.73;0.50;;;24.20;95.10;;;;;;5094348;28;20031;-52
2022/06/25 10:45:11;;;;;;;1.17;0.52;;;24.50;93.80;;;;;;5092360;28;20035;-54
2022/06/25 10:47:41;;;;;;;0.70;0.52;;;24.60;95.60;;;;;;5093874;28;20029;-56
2022/06/25 10:50:20;;;;;;;0.70;0.50;;;24.80;96.10;;;;;;5093847;28;20127;-55
2022/06/25 10:53:01;;;;;;;0.80;0.40;;;24.90;92.40;;;;;;5091388;28;20448;-53
2022/06/25 10:55:27;;;;;;;1.45;0.55;;;25.50;92.30;;;;;;5093687;28;20040;-54
2022/06/25 10:58:09;;;;;;;1.65;0.57;;;25.50;92.40;;;;;;5084125;28;20028;-54
2022/06/25 11:01:01;;;;;;;2.92;0.68;;;25.30;93.30;;;;;;5074517;28;20044;-51
2022/06/25 11:03:27;;;;;;;2.08;0.50;;;25.30;93.10;;;;;;5083191;28;20016;-53
2022/06/25 11:05:53;;;;;;;0.50;0.50;;;25.40;93.30;;;;;;5083230;28;20057;-51
2022/06/25 11:08:19;;;;;;;0.50;0.50;;;24.70;93.00;;;;;;5083537;28;20032;-51
2022/06/25 11:10:44;;;;;;;0.30;0.30;;;24.70;94.20;;;;;;5084432;28;20363;-54
2022/06/25 11:13:10;;;;;;;0.40;0.40;;;24.80;93.30;;;;;;5082352;28;20363;-55
2022/06/25 11:15:41;;;;;;;3.17;0.52;;;24.20;93.00;;;;;;5082070;28;20415;-53
2022/06/25 11:18:12;;;;;;;0.95;0.50;;;24.00;93.40;;;;;;5082766;28;20100;-54
2022/06/25 11:20:38;;;;;;;2.88;0.55;;;24.00;93.50;;;;;;5083030;28;20035;-54
2022/06/25 11:23:05;;;;;;;1.42;0.60;;;23.60;92.90;;;;;;5083550;28;20421;-54
2022/06/25 11:28:48;;;;;;;0.80;0.80;;;23.40;93.60;;;;;;5081774;28;20157;-55
2022/06/25 11:31:20;;;;;;;1.10;0.70;;;23.70;94.10;;;;;;5081403;28;20028;-53
2022/06/25 11:33:47;;;;;;;1.15;0.60;;;24.20;93.80;;;;;;5081336;28;20457;-54
2022/06/25 11:36:15;;;;;;;3.28;1.02;;;24.00;92.10;;;;;;5081388;28;20031;-54
2022/06/25 11:38:42;;;;;;;0.60;0.50;;;23.70;93.70;;;;;;5081849;28;20460;-54
2022/06/25 11:41:21;;;;;;;4.53;0.50;;;24.10;92.70;;;;;;5080993;28;20036;-56
2022/06/25 11:43:47;;;;;;;2.40;1.52;;;24.40;91.80;;;;;;5082903;28;20390;-54
2022/06/25 11:46:20;;;;;;;0.98;0.50;;;24.20;92.10;;;;;;5082442;28;20024;-55
2022/06/25 11:48:47;;;;;;;;;;;24.30;91.90;;;;;;5082472;28;20070;-52
2022/06/25 11:51:14;;;;;;;0.40;0.40;;;24.40;92.00;;;;;;5082547;28;19916;-54
2022/06/25 11:53:41;;;;;;;1.20;0.80;;;24.60;90.70;;;;;;5083278;28;20038;-55
2022/06/25 11:56:07;;;;;;;0.93;0.47;;;24.70;93.20;;;;;;5081483;28;20024;-54
2022/06/25 11:58:35;;;;;;;1.05;0.40;;;24.90;91.00;;;;;;5080980;28;20058;-53
2022/06/25 12:01:04;;;;;;;0.60;0.60;;;25.20;90.20;;;;;;5082912;28;20027;-56
2022/06/25 12:03:31;;;;;;;0.65;0.40;;;25.30;89.90;;;;;;5081866;28;20035;-54
2022/06/25 12:05:58;;;;;;;1.15;0.60;;;25.50;89.70;;;;;;5081111;28;20035;-55
2022/06/25 12:08:25;;;;;;;0.65;0.40;;;25.20;88.40;;;;;;5081220;28;20129;-55
2022/06/25 12:10:52;;;;;;;0.22;0.22;;;25.40;88.40;;;;;;5081849;28;20032;-52
2022/06/25 12:13:19;;;;;;;0.95;0.60;;;25.30;88.60;;;;;;5082290;28;20028;-56
2022/06/25 12:15:44;;;;;;;0.32;0.30;;;25.30;87.50;;;;;;5081888;28;20790;-56
2022/06/25 12:18:10;;;;;;;0.40;0.40;;;25.60;89.50;;;;;;5082156;28;20110;-54
2022/06/25 12:20:56;;;;;;;6.38;0.47;;;25.50;88.80;;;;;;5082113;28;20021;-54
2022/06/25 12:23:22;;;;;;;3.17;0.80;;;25.40;85.90;;;;;;5081495;28;20356;-55
2022/06/25 12:25:48;;;;;;;0.60;0.55;;;25.70;85.70;;;;;;5082330;28;20032;-51
2022/06/25 12:28:14;;;;;;;0.38;0.38;;;26.10;84.60;;;;;;5080932;28;20678;-55
2022/06/25 12:30:40;;;;;;;0.60;0.50;;;26.60;84.40;;;;;;5082079;28;20489;-55
2022/06/25 12:33:13;;;;;;;4.03;0.40;;;26.80;82.30;;;;;;5081288;28;20031;-55
2022/06/25 12:35:43;;;;;;;1.20;0.40;;;27.20;85.90;;;;;;5081724;28;20425;-56
2022/06/25 12:38:11;;;;;;;3.55;0.60;;;28.00;84.70;;;;;;5081044;28;20024;-54
2022/06/25 12:40:38;;;;;;;3.35;0.40;;;27.00;84.20;;;;;;5081557;28;20383;-55
2022/06/25 12:43:09;;;;;;;9.63;0.70;;;27.20;83.40;;;;;;5081704;28;20024;-56
2022/06/25 12:45:36;;;;;;;0.80;0.40;;;27.60;80.60;;;;;;5080716;28;20031;-55
2022/06/25 12:48:04;;;;;;;0.70;0.40;;;27.50;83.70;;;;;;5081142;28;20024;-54
2022/06/25 12:50:34;;;;;;;2.28;0.47;;;27.90;80.20;;;;;;5067598;28;20411;-56
2022/06/25 12:53:16;;;;;;;0.45;0.40;;;27.60;79.30;;;;;;5080724;28;20060;-54
2022/06/25 12:55:47;;;;;;;5.00;0.68;;;28.00;79.30;;;;;;5080681;28;20119;-49
2022/06/25 12:58:14;;;;;;;0.45;0.45;;;28.10;78.70;;;;;;5078707;28;20119;-56
2022/06/25 13:00:43;;;;;;;1.75;0.50;;;28.40;78.20;;;;;;5081066;28;20403;-51
2022/06/25 13:03:09;;;;;;;4.03;0.70;;;28.30;76.50;;;;;;5061878;28;20103;-55
2022/06/25 13:05:36;;;;;;;0.90;0.30;;;29.60;73.60;;;;;;5079943;28;20059;-56
2022/06/25 13:08:02;;;;;;;5.22;0.55;;;30.00;75.10;;;;;;5080596;28;20035;-57